createdAt,value
2022-08-16T00:01:21.681Z,16.20
2022-08-16T00:03:55.185Z,16.10
2022-08-16T00:06:26.792Z,16.20
2022-08-16T00:08:58.210Z,16.20
2022-08-16T00:11:30.206Z,16.20
2022-08-16T00:14:02.127Z,16.30
2022-08-16T00:17:05.923Z,16.20
2022-08-16T00:19:08.164Z,16.20
2022-08-16T00:21:40.012Z,16.10
2022-08-16T00:24:12.230Z,16.10
2022-08-16T00:26:45.418Z,16.10
2022-08-16T00:29:18.267Z,16.10
2022-08-16T00:31:59.743Z,16.00
2022-08-16T00:34:43.999Z,16.10
2022-08-16T00:36:58.677Z,16.10
2022-08-16T00:39:31.808Z,16.10
2022-08-16T00:42:03.209Z,16.10
2022-08-16T00:44:36.310Z,16.10
2022-08-16T00:47:10.689Z,16.20
2022-08-16T00:49:44.671Z,16.20
2022-08-16T00:52:29.564Z,16.20
2022-08-16T00:54:48.464Z,16.20
2022-08-16T00:57:20.106Z,16.20
2022-08-16T00:59:58.951Z,16.10
2022-08-16T01:02:31.352Z,16.10
2022-08-16T01:05:09.265Z,16.10
2022-08-16T01:07:50.783Z,16.10
2022-08-16T01:10:16.153Z,16.10
2022-08-16T01:12:40.532Z,16.00
2022-08-16T01:15:14.693Z,16.10
2022-08-16T01:17:48.134Z,16.00
2022-08-16T01:20:30.608Z,16.00
2022-08-16T01:23:00.564Z,16.00
2022-08-16T01:25:36.332Z,15.90
2022-08-16T01:28:11.213Z,16.00
2022-08-16T01:30:49.687Z,16.00
2022-08-16T01:33:22.433Z,16.00
2022-08-16T01:35:58.289Z,16.00
2022-08-16T01:38:33.222Z,15.90
2022-08-16T01:41:07.940Z,16.00
2022-08-16T01:43:42.678Z,15.90
2022-08-16T01:46:37.684Z,15.90
2022-08-16T01:48:58.149Z,15.90
2022-08-16T01:51:30.773Z,16.00
2022-08-16T01:54:04.053Z,15.90
2022-08-16T01:56:36.632Z,15.90
2022-08-16T01:59:16.012Z,15.90
2022-08-16T02:01:49.785Z,16.00
2022-08-16T02:04:49.709Z,15.90
2022-08-16T02:06:52.940Z,15.90
2022-08-16T02:09:26.597Z,15.90
2022-08-16T02:12:50.125Z,15.90
2022-08-16T02:14:35.106Z,15.80
2022-08-16T02:17:09.040Z,15.80
2022-08-16T02:19:59.481Z,15.70
2022-08-16T02:22:34.287Z,15.70
2022-08-16T02:24:53.429Z,15.60
2022-08-16T02:27:25.710Z,15.60
2022-08-16T02:30:05.510Z,15.50
2022-08-16T02:32:49.979Z,15.50
2022-08-16T02:35:03.805Z,15.50
2022-08-16T02:37:51.340Z,15.50
2022-08-16T02:40:11.851Z,15.50
2022-08-16T02:42:43.400Z,15.50
2022-08-16T02:45:16.941Z,15.50
2022-08-16T02:48:01.629Z,15.50
2022-08-16T02:50:54.375Z,15.50
2022-08-16T02:52:55.970Z,15.60
2022-08-16T02:55:40.916Z,15.50
2022-08-16T02:58:01.265Z,15.50
2022-08-16T03:00:34.987Z,15.60
2022-08-16T03:03:10.566Z,15.60
2022-08-16T03:05:39.870Z,15.60
2022-08-16T03:08:51.836Z,15.50
2022-08-16T03:10:47.900Z,15.50
2022-08-16T03:13:20.026Z,15.40
2022-08-16T03:15:51.569Z,15.40
2022-08-16T03:18:34.563Z,15.30
2022-08-16T03:20:56.461Z,15.30
2022-08-16T03:23:27.913Z,15.30
2022-08-16T03:26:01.720Z,15.20
2022-08-16T03:28:33.952Z,15.20
2022-08-16T03:31:07.175Z,15.10
2022-08-16T03:33:39.172Z,15.10
2022-08-16T03:36:30.203Z,15.00
2022-08-16T03:38:44.655Z,15.00
2022-08-16T03:41:25.745Z,14.90
2022-08-16T03:43:51.241Z,14.90
2022-08-16T03:46:45.153Z,15.00
2022-08-16T03:48:56.741Z,14.90
2022-08-16T03:51:28.421Z,14.90
2022-08-16T03:54:01.325Z,15.00
2022-08-16T03:56:32.895Z,15.00
2022-08-16T03:59:04.941Z,15.10
2022-08-16T04:01:36.920Z,15.10
2022-08-16T04:04:08.095Z,15.10
2022-08-16T04:06:40.234Z,15.10
2022-08-16T04:09:12.695Z,15.10
2022-08-16T04:11:44.097Z,15.10
2022-08-16T04:14:32.495Z,15.00
2022-08-16T04:16:48.892Z,14.90
2022-08-16T04:19:23.677Z,14.90
2022-08-16T04:21:56.854Z,14.90
2022-08-16T04:24:29.002Z,14.90
2022-08-16T04:27:01.295Z,14.90
2022-08-16T04:29:43.923Z,15.00
2022-08-16T04:32:07.609Z,15.00
2022-08-16T04:34:40.242Z,15.00
2022-08-16T04:37:11.756Z,15.10
2022-08-16T04:39:46.609Z,15.20
2022-08-16T04:42:17.926Z,15.20
2022-08-16T04:44:54.097Z,15.30
2022-08-16T04:47:24.287Z,15.40
2022-08-16T04:49:56.278Z,15.40
2022-08-16T04:52:35.148Z,15.50
2022-08-16T04:55:03.447Z,15.50
2022-08-16T04:57:35.309Z,15.50
2022-08-16T05:00:32.591Z,15.60
2022-08-16T05:02:46.241Z,15.70
2022-08-16T05:05:18.097Z,15.80
2022-08-16T05:07:57.871Z,15.90
2022-08-16T05:10:23.571Z,16.00
2022-08-16T05:12:55.062Z,16.00
2022-08-16T05:15:28.330Z,16.10
2022-08-16T05:17:59.844Z,16.20
2022-08-16T05:20:38.774Z,16.40
2022-08-16T05:23:06.403Z,16.40
2022-08-16T05:25:47.872Z,16.50
2022-08-16T05:28:11.836Z,16.60
2022-08-16T05:30:43.517Z,16.60
2022-08-16T05:33:16.696Z,16.70
2022-08-16T05:35:55.199Z,17.50
2022-08-16T05:38:33.095Z,19.40
2022-08-16T05:41:00.510Z,20.80
2022-08-16T05:43:43.603Z,21.90
2022-08-16T05:46:30.574Z,22.60
2022-08-16T05:48:41.513Z,23.00
2022-08-16T05:51:13.088Z,23.00
2022-08-16T05:53:46.097Z,23.30
2022-08-16T05:56:19.259Z,23.60
2022-08-16T05:58:50.909Z,23.70
2022-08-16T06:01:22.379Z,23.90
2022-08-16T06:03:53.749Z,24.10
2022-08-16T06:06:27.962Z,24.10
2022-08-16T06:09:00.090Z,24.20
2022-08-16T06:11:32.106Z,24.70
2022-08-16T06:14:03.775Z,25.00
2022-08-16T06:16:36.997Z,24.90
2022-08-16T06:19:08.670Z,25.30
2022-08-16T06:21:40.453Z,25.60
2022-08-16T06:24:54.955Z,25.60
2022-08-16T06:26:46.028Z,25.70
2022-08-16T06:29:17.908Z,25.70
2022-08-16T06:31:50.509Z,25.90
2022-08-16T06:34:54.980Z,26.20
2022-08-16T06:36:59.578Z,26.00
2022-08-16T06:39:31.481Z,26.10
2022-08-16T06:42:05.006Z,26.30
2022-08-16T06:44:38.121Z,25.80
2022-08-16T06:47:13.004Z,25.30
2022-08-16T06:49:52.914Z,24.80
2022-08-16T06:52:57.736Z,25.00
2022-08-16T06:54:52.348Z,24.80
2022-08-16T06:57:23.632Z,24.90
2022-08-16T06:59:58.433Z,25.20
2022-08-16T07:02:33.314Z,25.20
2022-08-16T07:05:01.977Z,25.10
2022-08-16T07:07:34.566Z,25.20
2022-08-16T07:10:09.010Z,25.10
2022-08-16T07:12:47.512Z,24.90
2022-08-16T07:15:17.059Z,24.70
2022-08-16T07:17:49.516Z,25.20
2022-08-16T07:20:35.595Z,25.10
2022-08-16T07:22:59.027Z,24.60
2022-08-16T07:25:29.603Z,24.00
2022-08-16T07:28:01.316Z,23.40
2022-08-16T07:30:46.101Z,22.80
2022-08-16T07:33:07.799Z,22.30
2022-08-16T07:35:44.590Z,21.90
2022-08-16T07:38:12.558Z,21.80
2022-08-16T07:41:01.911Z,21.90
2022-08-16T07:43:18.730Z,22.20
2022-08-16T07:45:53.186Z,22.60
2022-08-16T07:48:24.834Z,22.90
2022-08-16T07:50:59.576Z,23.20
2022-08-16T07:53:32.469Z,23.20
2022-08-16T07:56:04.639Z,23.20
2022-08-16T07:58:37.014Z,23.10
2022-08-16T08:01:10.600Z,23.10
2022-08-16T08:03:48.952Z,23.20
2022-08-16T08:06:18.252Z,23.30
2022-08-16T08:08:52.650Z,23.20
2022-08-16T08:11:24.271Z,23.10
2022-08-16T08:14:03.068Z,23.00
2022-08-16T08:16:35.715Z,23.10
2022-08-16T08:19:09.962Z,23.20
2022-08-16T08:21:58.951Z,23.10
2022-08-16T08:24:15.744Z,23.20
2022-08-16T08:26:50.026Z,23.30
2022-08-16T08:29:22.945Z,23.30
2022-08-16T08:31:55.077Z,23.20
2022-08-16T08:34:27.630Z,23.30
2022-08-16T08:36:59.734Z,23.40
2022-08-16T08:39:32.149Z,23.60
2022-08-16T08:42:05.248Z,23.70
2022-08-16T08:44:37.665Z,23.80
2022-08-16T08:47:11.565Z,23.90
2022-08-16T08:49:50.630Z,23.90
2022-08-16T08:52:34.315Z,24.00
2022-08-16T08:54:50.383Z,24.20
2022-08-16T08:57:22.856Z,24.20
2022-08-16T08:59:55.693Z,24.20
2022-08-16T09:02:28.446Z,24.30
2022-08-16T09:05:00.004Z,24.20
2022-08-16T09:07:31.437Z,24.00
2022-08-16T09:10:06.753Z,24.00
2022-08-16T09:12:38.529Z,24.00
2022-08-16T09:15:13.737Z,24.00
2022-08-16T09:17:49.060Z,24.30
2022-08-16T09:20:19.065Z,24.50
2022-08-16T09:22:52.628Z,24.70
2022-08-16T09:25:26.033Z,24.70
2022-08-16T09:28:02.347Z,24.70
2022-08-16T09:30:36.439Z,25.00
2022-08-16T09:33:08.460Z,24.90
2022-08-16T09:35:42.563Z,24.80
2022-08-16T09:38:31.291Z,24.60
2022-08-16T09:40:49.078Z,24.60
2022-08-16T09:43:57.935Z,24.60
2022-08-16T09:45:56.522Z,24.80
2022-08-16T09:48:44.456Z,25.00
2022-08-16T09:51:01.927Z,25.00
2022-08-16T09:53:35.121Z,24.80
2022-08-16T09:56:12.451Z,24.70
2022-08-16T09:59:05.797Z,24.70
2022-08-16T10:01:17.182Z,24.70
2022-08-16T10:04:01.874Z,24.80
2022-08-16T10:06:25.401Z,24.70
2022-08-16T10:09:05.440Z,24.80
2022-08-16T10:11:50.447Z,24.90
2022-08-16T10:14:24.928Z,24.90
2022-08-16T10:16:59.682Z,24.80
2022-08-16T10:19:31.857Z,24.80
2022-08-16T10:22:05.161Z,24.90
2022-08-16T10:24:36.269Z,25.10
2022-08-16T10:27:25.434Z,25.30
2022-08-16T10:30:00.979Z,25.30
2022-08-16T10:32:20.981Z,25.40
2022-08-16T10:34:51.366Z,25.40
2022-08-16T10:37:32.202Z,25.40
2022-08-16T10:39:56.407Z,25.40
2022-08-16T10:42:27.894Z,25.40
2022-08-16T10:44:59.501Z,25.50
2022-08-16T10:47:38.133Z,25.60
2022-08-16T10:50:05.366Z,25.60
2022-08-16T10:57:44.530Z,25.60
2022-08-16T11:00:20.857Z,25.70
2022-08-16T11:03:00.687Z,25.80
2022-08-16T11:05:26.637Z,25.80
2022-08-16T11:07:59.241Z,25.80
2022-08-16T11:15:47.941Z,26.00
2022-08-16T11:18:47.877Z,26.30
2022-08-16T11:20:50.578Z,26.30
2022-08-16T11:23:22.280Z,26.40
2022-08-16T11:26:07.579Z,26.50
2022-08-16T11:31:01.107Z,26.60
2022-08-16T11:36:22.457Z,26.70
2022-08-16T11:38:52.048Z,26.80
2022-08-16T11:41:12.774Z,26.80
2022-08-16T11:43:44.831Z,26.90
2022-08-16T11:46:43.053Z,27.00
2022-08-16T11:48:51.727Z,27.10
2022-08-16T11:51:23.177Z,27.20
2022-08-16T11:53:54.631Z,27.20
2022-08-16T11:56:29.948Z,27.20
2022-08-16T11:58:59.355Z,27.30
2022-08-16T12:01:44.408Z,27.40
2022-08-16T12:04:04.810Z,27.40
2022-08-16T12:06:36.238Z,27.50
2022-08-16T12:09:09.190Z,27.60
2022-08-16T12:11:41.700Z,27.50
2022-08-16T12:14:14.881Z,27.60
2022-08-16T12:16:48.898Z,27.60
2022-08-16T12:19:20.790Z,27.60
2022-08-16T12:21:58.932Z,27.80
2022-08-16T12:24:27.298Z,27.80
2022-08-16T12:26:59.993Z,28.00
2022-08-16T12:29:31.862Z,28.10
2022-08-16T12:32:35.595Z,28.00
2022-08-16T12:34:36.963Z,27.90
2022-08-16T12:37:11.807Z,27.90
2022-08-16T12:39:50.753Z,27.90
2022-08-16T12:42:17.123Z,27.80
2022-08-16T12:44:49.169Z,27.70
2022-08-16T12:48:04.882Z,27.60
2022-08-16T12:50:25.561Z,27.60
2022-08-16T12:52:58.969Z,27.80
2022-08-16T12:55:33.372Z,27.80
2022-08-16T12:58:06.020Z,27.80
2022-08-16T13:00:39.143Z,27.70
2022-08-16T13:03:13.290Z,27.80
2022-08-16T13:05:53.515Z,27.90
2022-08-16T13:08:21.701Z,27.70
2022-08-16T13:10:55.206Z,27.60
2022-08-16T13:13:29.392Z,27.50
2022-08-16T13:16:10.697Z,27.60
2022-08-16T13:18:36.487Z,27.70
2022-08-16T13:21:10.462Z,27.60
2022-08-16T13:23:43.543Z,27.60
2022-08-16T13:26:17.796Z,27.60
2022-08-16T13:28:48.274Z,27.50
2022-08-16T13:31:20.215Z,27.60
2022-08-16T13:33:54.521Z,27.60
2022-08-16T13:36:47.961Z,27.80
2022-08-16T13:38:58.946Z,28.00
2022-08-16T13:41:30.804Z,28.20
2022-08-16T13:44:04.167Z,28.30
2022-08-16T13:46:36.768Z,28.40
2022-08-16T13:49:07.835Z,28.30
2022-08-16T13:51:39.783Z,28.50
2022-08-16T13:54:12.241Z,28.70
2022-08-16T13:56:43.740Z,28.80
2022-08-16T13:59:20.447Z,28.80
2022-08-16T14:01:55.045Z,28.70
2022-08-16T14:04:27.351Z,28.70
2022-08-16T14:07:00.260Z,28.80
2022-08-16T14:09:33.684Z,28.90
2022-08-16T14:12:17.517Z,28.80
2022-08-16T14:14:40.987Z,28.90
2022-08-16T14:17:13.720Z,29.00
2022-08-16T14:19:46.263Z,29.00
2022-08-16T14:22:31.400Z,29.00
2022-08-16T14:24:55.731Z,29.00
2022-08-16T14:27:30.663Z,29.00
2022-08-16T14:30:02.500Z,29.00
2022-08-16T14:32:34.753Z,28.90
2022-08-16T14:35:11.398Z,28.90
2022-08-16T14:37:43.390Z,28.90
2022-08-16T14:40:17.911Z,29.00
2022-08-16T14:42:52.957Z,29.10
2022-08-16T14:45:28.252Z,29.10
2022-08-16T14:48:01.242Z,29.10
2022-08-16T14:50:33.735Z,29.10
2022-08-16T14:53:08.169Z,29.10
2022-08-16T14:55:41.136Z,29.10
2022-08-16T14:58:19.497Z,29.10
2022-08-16T15:00:45.978Z,29.10
2022-08-16T15:03:17.589Z,29.10
2022-08-16T15:05:49.064Z,29.20
2022-08-16T15:08:36.739Z,29.20
2022-08-16T15:10:55.119Z,29.30
2022-08-16T15:13:26.515Z,29.20
2022-08-16T15:16:02.756Z,29.30
2022-08-16T15:18:33.974Z,29.30
2022-08-16T15:21:08.473Z,29.30
2022-08-16T15:23:41.332Z,29.30
2022-08-16T15:26:29.570Z,29.30
2022-08-16T15:28:46.489Z,29.20
2022-08-16T15:31:18.944Z,29.10
2022-08-16T15:33:56.604Z,29.20
2022-08-16T15:36:25.864Z,29.20
2022-08-16T15:39:05.742Z,29.20
2022-08-16T15:41:54.999Z,29.30
2022-08-16T15:44:30.974Z,29.30
2022-08-16T15:47:03.019Z,29.30
2022-08-16T15:49:45.879Z,29.40
2022-08-16T15:52:15.167Z,29.40
2022-08-16T15:54:53.588Z,29.20
2022-08-16T15:57:22.434Z,29.20
2022-08-16T15:59:59.314Z,29.20
2022-08-16T16:02:31.272Z,29.10
2022-08-16T16:05:04.588Z,29.10
2022-08-16T16:07:36.820Z,29.10
2022-08-16T16:10:12.929Z,29.10
2022-08-16T16:12:53.285Z,28.90
2022-08-16T16:15:22.948Z,28.80
2022-08-16T16:17:54.424Z,28.60
2022-08-16T16:20:28.065Z,28.50
2022-08-16T16:23:02.385Z,28.40
2022-08-16T16:25:35.309Z,28.30
2022-08-16T16:28:12.524Z,28.30
2022-08-16T16:30:44.818Z,28.20
2022-08-16T16:33:15.482Z,28.20
2022-08-16T16:35:48.005Z,28.30
2022-08-16T16:38:21.553Z,28.30
2022-08-16T16:40:54.181Z,28.40
2022-08-16T16:43:31.653Z,28.50
2022-08-16T16:45:59.233Z,28.60
2022-08-16T16:48:35.283Z,28.70
2022-08-16T16:51:09.728Z,28.70
2022-08-16T16:53:42.571Z,28.70
2022-08-16T16:56:19.820Z,28.70
2022-08-16T16:58:57.450Z,28.60
2022-08-16T17:01:41.539Z,28.60
2022-08-16T17:04:19.229Z,28.60
2022-08-16T17:06:43.280Z,28.50
2022-08-16T17:09:16.262Z,28.40
2022-08-16T17:11:48.612Z,28.30
2022-08-16T17:14:32.411Z,28.20
2022-08-16T17:16:54.612Z,28.10
2022-08-16T17:19:31.459Z,28.00
2022-08-16T17:21:59.234Z,27.80
2022-08-16T17:24:39.832Z,27.70
2022-08-16T17:27:04.699Z,27.60
2022-08-16T17:29:42.932Z,27.40
2022-08-16T17:32:33.925Z,27.30
2022-08-16T17:34:50.567Z,27.10
2022-08-16T17:37:22.223Z,26.90
2022-08-16T17:39:59.989Z,26.80
2022-08-16T17:42:27.196Z,26.60
2022-08-16T17:44:59.113Z,26.50
2022-08-16T17:47:30.497Z,26.40
2022-08-16T17:50:02.488Z,26.10
2022-08-16T17:52:34.819Z,26.00
2022-08-16T17:55:14.517Z,25.90
2022-08-16T17:57:47.514Z,25.80
2022-08-16T18:00:20.703Z,25.60
2022-08-16T18:02:53.580Z,25.40
2022-08-16T18:05:26.841Z,25.20
2022-08-16T18:07:58.438Z,25.10
2022-08-16T18:10:33.260Z,25.20
2022-08-16T18:13:03.481Z,25.10
2022-08-16T18:15:35.189Z,25.10
2022-08-16T18:18:10.900Z,25.10
2022-08-16T18:20:59.984Z,25.00
2022-08-16T18:23:31.378Z,24.90
2022-08-16T18:26:04.745Z,24.80
2022-08-16T18:28:38.767Z,24.70
2022-08-16T18:31:10.632Z,24.60
2022-08-16T18:33:43.804Z,24.50
2022-08-16T18:36:21.124Z,24.40
2022-08-16T18:38:49.089Z,24.30
2022-08-16T18:41:22.323Z,24.20
2022-08-16T18:44:23.089Z,24.00
2022-08-16T18:46:27.110Z,24.00
2022-08-16T18:48:58.587Z,23.90
2022-08-16T18:51:30.423Z,23.80
2022-08-16T18:54:02.135Z,23.70
2022-08-16T18:56:55.469Z,23.60
2022-08-16T18:59:07.318Z,23.50
2022-08-16T19:01:38.714Z,23.40
2022-08-16T19:04:56.681Z,23.20
2022-08-16T19:06:43.172Z,23.20
2022-08-16T19:09:14.534Z,23.20
2022-08-16T19:11:45.941Z,23.30
2022-08-16T19:14:18.209Z,23.20
2022-08-16T19:16:49.726Z,23.20
2022-08-16T19:19:22.880Z,23.10
2022-08-16T19:21:55.382Z,23.00
2022-08-16T19:24:29.402Z,23.00
2022-08-16T19:26:59.605Z,22.90
2022-08-16T19:29:32.680Z,22.80
2022-08-16T19:32:04.481Z,22.80
2022-08-16T19:34:35.980Z,22.80
2022-08-16T19:37:07.465Z,22.70
2022-08-16T19:39:39.414Z,22.70
2022-08-16T19:42:17.329Z,22.60
2022-08-16T19:44:50.462Z,22.60
2022-08-16T19:47:23.074Z,22.50
2022-08-16T19:49:54.522Z,22.50
2022-08-16T19:52:28.748Z,22.60
2022-08-16T19:55:04.907Z,22.60
2022-08-16T19:57:38.477Z,22.60
2022-08-16T20:00:14.442Z,22.70
2022-08-16T20:02:51.229Z,22.60
2022-08-16T20:05:25.499Z,22.60
2022-08-16T20:08:02.288Z,22.50
2022-08-16T20:10:31.322Z,22.50
2022-08-16T20:13:03.126Z,22.40
2022-08-16T20:15:35.824Z,22.40
2022-08-16T20:18:22.773Z,22.40
2022-08-16T20:20:41.749Z,22.30
2022-08-16T20:23:24.102Z,22.30
2022-08-16T20:25:49.953Z,22.20
2022-08-16T20:28:39.466Z,22.10
2022-08-16T20:31:01.409Z,22.10
2022-08-16T20:33:32.859Z,21.90
2022-08-16T20:36:15.914Z,21.90
2022-08-16T20:38:44.349Z,21.80
2022-08-16T20:41:15.976Z,21.80
2022-08-16T20:43:48.169Z,21.80
2022-08-16T20:46:19.586Z,21.70
2022-08-16T20:48:50.931Z,21.70
2022-08-16T20:51:22.234Z,21.80
2022-08-16T20:53:58.579Z,21.80
2022-08-16T20:56:30.197Z,21.80
2022-08-16T20:59:02.474Z,21.80
2022-08-16T21:01:45.670Z,21.80
2022-08-16T21:04:07.461Z,21.80
2022-08-16T21:06:40.869Z,21.70
2022-08-16T21:09:12.651Z,21.70
2022-08-16T21:11:44.065Z,21.70
2022-08-16T21:14:15.521Z,21.60
2022-08-16T21:16:46.884Z,21.50
2022-08-16T21:19:18.273Z,21.40
2022-08-16T21:21:50.042Z,21.40
2022-08-16T21:24:21.615Z,21.30
2022-08-16T21:26:56.162Z,21.20
2022-08-16T21:29:43.142Z,21.20
2022-08-16T21:32:12.822Z,21.20
2022-08-16T21:34:45.490Z,21.10
2022-08-16T21:37:16.920Z,21.10
2022-08-16T21:39:48.384Z,21.10
2022-08-16T21:42:19.785Z,21.00
2022-08-16T21:44:51.231Z,21.00
2022-08-16T21:47:22.649Z,21.00
2022-08-16T21:49:54.322Z,21.10
2022-08-16T21:52:27.010Z,21.10
2022-08-16T21:54:59.037Z,21.20
2022-08-16T21:57:35.451Z,21.30
2022-08-16T22:00:09.876Z,21.40
2022-08-16T22:02:42.046Z,21.40
2022-08-16T22:05:13.417Z,21.50
2022-08-16T22:07:46.050Z,21.50
2022-08-16T22:11:05.742Z,21.50
2022-08-16T22:12:51.905Z,21.40
2022-08-16T22:15:25.823Z,21.20
2022-08-16T22:17:59.578Z,21.00
2022-08-16T22:20:31.529Z,20.90
2022-08-16T22:23:11.392Z,20.90
2022-08-16T22:25:47.381Z,20.80
2022-08-16T22:28:20.568Z,20.80
2022-08-16T22:30:52.467Z,20.80
2022-08-16T22:33:26.198Z,20.80
2022-08-16T22:36:00.099Z,20.80
2022-08-16T22:38:54.770Z,20.70
2022-08-16T22:41:06.600Z,20.60
2022-08-16T22:43:37.966Z,20.60
2022-08-16T22:46:09.989Z,20.60
2022-08-16T22:48:41.348Z,20.60
2022-08-16T22:51:13.941Z,20.60
2022-08-16T22:53:45.050Z,20.70
2022-08-16T22:56:17.475Z,20.70
2022-08-16T22:58:49.668Z,20.80
2022-08-16T23:01:23.526Z,20.90
2022-08-16T23:03:55.744Z,20.90
2022-08-16T23:06:27.290Z,21.00
2022-08-16T23:08:58.714Z,21.00
2022-08-16T23:11:30.104Z,21.00
2022-08-16T23:14:01.816Z,21.00
2022-08-16T23:16:35.081Z,21.00
2022-08-16T23:19:09.416Z,21.10
2022-08-16T23:21:44.442Z,21.10
2022-08-16T23:24:17.553Z,21.10
2022-08-16T23:26:49.731Z,21.20
2022-08-16T23:29:26.530Z,21.20
2022-08-16T23:32:00.080Z,21.20
2022-08-16T23:34:31.469Z,21.30
2022-08-16T23:37:02.881Z,21.30
2022-08-16T23:39:36.162Z,21.30
2022-08-16T23:42:15.451Z,21.30
2022-08-16T23:44:58.704Z,21.30
2022-08-16T23:47:21.451Z,21.40
2022-08-16T23:50:02.588Z,21.30
2022-08-16T23:52:40.576Z,21.20
2022-08-16T23:54:59.753Z,21.10
2022-08-16T23:57:31.444Z,21.10
